Time;durP1;ratioP1;P1;durP2;ratioP2;P2;SDS_P1;SDS_P2;PMS_P1;PMS_P2;Temp;Humidity;BMP_temperature;BMP_pressure;BME280_temperature;BME280_humidity;BME280_pressure;Samples;Min_cycle;Max_cycle;Signal;HPM_P1;HPM_P2
2021/12/15 00:00:42;;;;;;;12.98;3.67;;;3.60;99.90;;;;;;4878397;29;20053;-85
2021/12/15 00:03:09;;;;;;;7.35;2.60;;;3.70;99.90;;;;;;4878654;29;20194;-84
2021/12/15 00:05:37;;;;;;;15.02;3.60;;;3.70;99.90;;;;;;4878707;29;20112;-84
2021/12/15 00:08:11;;;;;;;12.70;2.95;;;3.70;99.90;;;;;;4879749;29;20504;-82
2021/12/15 00:10:42;;;;;;;12.07;2.78;;;3.80;99.90;;;;;;4880223;29;20180;-82
2021/12/15 00:13:12;;;;;;;13.35;3.00;;;3.80;99.90;;;;;;4877284;29;20581;-82
2021/12/15 00:15:40;;;;;;;9.15;2.67;;;3.80;99.90;;;;;;4876032;29;20144;-81
2021/12/15 00:18:07;;;;;;;13.88;3.30;;;3.90;99.90;;;;;;4879134;29;20700;-82
2021/12/15 00:20:38;;;;;;;9.93;3.33;;;3.90;99.90;;;;;;4879534;29;20628;-82
2021/12/15 00:23:05;;;;;;;7.65;3.03;;;3.90;99.90;;;;;;4876925;29;20617;-82
2021/12/15 00:25:36;;;;;;;7.50;2.40;;;3.90;99.90;;;;;;4879863;29;20052;-84
2021/12/15 00:28:04;;;;;;;10.15;2.75;;;4.00;99.90;;;;;;4883553;29;20064;-84
2021/12/15 00:30:32;;;;;;;8.68;2.63;;;4.00;99.90;;;;;;4877727;29;20059;-84
2021/12/15 00:32:59;;;;;;;10.88;3.33;;;4.00;99.90;;;;;;4877856;29;20056;-84
2021/12/15 00:35:26;;;;;;;9.93;2.90;;;4.00;99.90;;;;;;4891938;29;20051;-84
2021/12/15 00:37:54;;;;;;;13.10;3.00;;;4.10;99.90;;;;;;4877892;29;20071;-84
2021/12/15 00:40:24;;;;;;;7.45;3.53;;;4.10;99.90;;;;;;4878819;29;20056;-84
2021/12/15 00:42:52;;;;;;;;;;;4.10;99.90;;;;;;4879771;29;20063;-84
2021/12/15 00:45:19;;;;;;;6.32;3.25;;;4.10;99.90;;;;;;4890024;29;19970;-85
2021/12/15 00:47:47;;;;;;;15.55;3.15;;;4.10;99.90;;;;;;4890785;29;20060;-84
2021/12/15 00:50:18;;;;;;;8.52;3.20;;;4.10;99.90;;;;;;4878927;29;20152;-86
2021/12/15 00:52:46;;;;;;;16.10;3.17;;;4.10;99.90;;;;;;4879697;29;20875;-84
2021/12/15 00:55:17;;;;;;;9.45;3.22;;;4.20;99.90;;;;;;4879459;29;20470;-84
2021/12/15 00:57:45;;;;;;;11.93;3.58;;;4.10;99.90;;;;;;4875988;29;20082;-84
2021/12/15 01:00:20;;;;;;;9.77;4.28;;;4.10;99.90;;;;;;4877917;29;20071;-84
2021/12/15 01:02:49;;;;;;;7.60;3.00;;;4.10;99.90;;;;;;4891320;29;20055;-84
2021/12/15 01:05:19;;;;;;;11.98;4.97;;;4.10;99.90;;;;;;4877588;29;20863;-84
2021/12/15 01:07:48;;;;;;;11.80;3.33;;;4.10;99.90;;;;;;4874145;29;20685;-84
2021/12/15 01:10:25;;;;;;;15.13;2.97;;;4.10;99.90;;;;;;4878659;29;20053;-84
2021/12/15 01:14:32;;;;;;;7.53;2.28;;;4.10;99.90;;;;;;4878260;29;20439;-84
2021/12/15 01:21:17;;;;;;;9.90;3.28;;;4.00;99.90;;;;;;4876829;29;20070;-85
2021/12/15 01:23:45;;;;;;;10.05;2.95;;;4.00;99.90;;;;;;4882746;29;20503;-84
2021/12/15 01:26:14;;;;;;;7.47;3.35;;;4.10;99.90;;;;;;4877899;29;20045;-84
2021/12/15 01:28:42;;;;;;;12.57;3.03;;;4.10;99.90;;;;;;4877491;29;20141;-84
2021/12/15 01:31:10;;;;;;;12.05;2.92;;;4.10;99.90;;;;;;4877103;29;20470;-84
2021/12/15 01:33:38;;;;;;;9.80;2.90;;;4.10;99.90;;;;;;4873471;29;20503;-84
2021/12/15 01:36:07;;;;;;;9.77;2.55;;;4.20;99.90;;;;;;4876141;29;20088;-84
2021/12/15 01:38:37;;;;;;;13.73;4.68;;;4.20;99.90;;;;;;4873550;29;20048;-84
2021/12/15 01:41:06;;;;;;;14.68;3.83;;;4.20;99.90;;;;;;4875095;29;20576;-83
2021/12/15 01:49:13;;;;;;;7.75;3.53;;;4.30;99.90;;;;;;4877486;29;20052;-83
2021/12/15 01:51:42;;;;;;;9.23;2.97;;;4.40;99.90;;;;;;4877944;29;20406;-83
2021/12/15 01:54:10;;;;;;;7.32;2.70;;;4.40;99.90;;;;;;4891890;29;20048;-84
2021/12/15 01:56:38;;;;;;;8.63;3.35;;;4.40;99.90;;;;;;4873069;29;20060;-83
2021/12/15 01:59:07;;;;;;;9.77;3.45;;;4.40;99.90;;;;;;4877480;29;20044;-83
2021/12/15 02:01:34;;;;;;;14.38;4.93;;;4.50;99.90;;;;;;4877206;29;20053;-83
2021/12/15 02:04:02;;;;;;;10.32;3.10;;;4.50;99.90;;;;;;4875486;29;20084;-83
2021/12/15 02:06:42;;;;;;;9.05;2.53;;;4.50;99.90;;;;;;4877756;29;20501;-83
2021/12/15 02:09:12;;;;;;;11.45;3.17;;;4.50;99.90;;;;;;4874419;29;20048;-83
2021/12/15 02:11:39;;;;;;;9.65;3.15;;;4.60;99.90;;;;;;4877804;29;20064;-83
2021/12/15 02:14:07;;;;;;;6.65;3.35;;;4.50;99.90;;;;;;4874739;29;20048;-83
2021/12/15 02:16:34;;;;;;;4.60;2.60;;;4.50;99.90;;;;;;4893918;29;20049;-83
2021/12/15 02:19:01;;;;;;;10.68;3.78;;;4.50;99.90;;;;;;4877894;29;20136;-83
2021/12/15 02:21:29;;;;;;;8.93;3.03;;;4.60;99.90;;;;;;4876388;29;20051;-83
2021/12/15 02:23:58;;;;;;;7.88;2.83;;;4.60;99.90;;;;;;4876157;29;20148;-83
2021/12/15 02:26:39;;;;;;;5.85;2.92;;;4.60;99.90;;;;;;4873400;29;20080;-83
2021/12/15 02:29:15;;;;;;;4.68;2.72;;;4.60;99.90;;;;;;4893054;29;20475;-83
2021/12/15 02:37:17;;;;;;;13.23;4.28;;;4.60;99.90;;;;;;4892152;29;20064;-84
2021/12/15 02:39:59;;;;;;;11.60;4.07;;;4.60;99.90;;;;;;4875964;29;20049;-84
2021/12/15 02:42:35;;;;;;;9.45;3.08;;;4.60;99.90;;;;;;4889177;29;20059;-84
2021/12/15 02:45:05;;;;;;;12.48;2.95;;;4.60;99.90;;;;;;4888154;29;20053;-83
2021/12/15 02:47:32;;;;;;;3.95;2.28;;;4.60;99.90;;;;;;4876784;29;20527;-83
2021/12/15 02:50:04;;;;;;;11.75;3.05;;;4.60;99.90;;;;;;4872883;29;21368;-83
2021/12/15 02:52:31;;;;;;;4.55;3.33;;;4.60;99.90;;;;;;4872678;29;21094;-83
2021/12/15 02:54:58;;;;;;;10.38;5.95;;;4.60;99.90;;;;;;4875697;29;20048;-83
2021/12/15 02:57:26;;;;;;;8.52;2.95;;;4.50;99.90;;;;;;4895285;29;20057;-83
2021/12/15 03:00:00;;;;;;;8.23;3.30;;;4.60;99.90;;;;;;4879925;29;20443;-83
2021/12/15 03:15:41;;;;;;;7.80;3.42;;;4.60;99.90;;;;;;4879282;29;20056;-80
2021/12/15 03:18:19;;;;;;;4.65;2.47;;;4.60;99.90;;;;;;4879279;29;20065;-80
2021/12/15 03:20:53;;;;;;;7.10;3.20;;;4.60;99.90;;;;;;4877590;29;20415;-80
2021/12/15 03:23:28;;;;;;;4.05;2.60;;;4.60;99.90;;;;;;4878543;29;20511;-80
2021/12/15 03:25:57;;;;;;;8.02;3.38;;;4.60;99.90;;;;;;4879777;29;20045;-81
2021/12/15 03:36:53;;;;;;;8.15;2.63;;;4.70;99.90;;;;;;4895849;29;20049;-81
2021/12/15 03:39:21;;;;;;;10.77;3.45;;;4.70;99.90;;;;;;4894025;29;20135;-81
2021/12/15 03:41:56;;;;;;;10.15;2.60;;;4.70;99.90;;;;;;4876251;29;20044;-81
2021/12/15 03:44:23;;;;;;;6.63;3.38;;;4.70;99.90;;;;;;4879538;29;20506;-82
2021/12/15 03:46:51;;;;;;;6.68;3.80;;;4.70;99.90;;;;;;4875245;29;20128;-83
2021/12/15 03:49:18;;;;;;;5.95;2.95;;;4.70;99.90;;;;;;4879922;29;20100;-83
2021/12/15 03:51:46;;;;;;;5.25;3.33;;;4.70;99.90;;;;;;4879012;29;20040;-82
2021/12/15 03:54:13;;;;;;;9.80;3.25;;;4.70;99.90;;;;;;4879556;29;20076;-82
2021/12/15 03:56:41;;;;;;;6.20;4.05;;;4.70;99.90;;;;;;4879711;29;20048;-82
2021/12/15 03:59:09;;;;;;;5.13;3.42;;;4.70;99.90;;;;;;4889425;29;20053;-82
2021/12/15 04:01:37;;;;;;;16.65;5.10;;;4.70;99.90;;;;;;4879859;29;20083;-82
2021/12/15 04:04:06;;;;;;;6.38;3.75;;;4.70;99.90;;;;;;4878955;29;20041;-82
2021/12/15 04:06:38;;;;;;;8.77;3.47;;;4.60;99.90;;;;;;4878814;29;20131;-82
2021/12/15 04:09:10;;;;;;;11.43;3.45;;;4.60;99.90;;;;;;4877446;29;20053;-82
2021/12/15 04:11:37;;;;;;;3.55;3.25;;;4.60;99.90;;;;;;4879447;29;20051;-82
2021/12/15 04:14:11;;;;;;;5.78;3.17;;;4.70;99.90;;;;;;4878625;29;20899;-83
2021/12/15 04:19:14;;;;;;;6.80;3.05;;;4.70;99.90;;;;;;4877883;29;20713;-82
2021/12/15 04:21:42;;;;;;;7.82;3.15;;;4.70;99.90;;;;;;4879361;29;20471;-81
2021/12/15 04:24:17;;;;;;;10.90;4.38;;;4.70;99.90;;;;;;4879240;29;20519;-81
2021/12/15 04:26:46;;;;;;;6.60;4.15;;;4.70;99.90;;;;;;4878830;29;20059;-83
2021/12/15 04:29:14;;;;;;;10.05;4.35;;;4.70;99.90;;;;;;4876479;29;20465;-81
2021/12/15 04:31:58;;;;;;;11.38;4.72;;;4.70;99.90;;;;;;4879455;29;20056;-82
2021/12/15 04:34:25;;;;;;;7.30;4.20;;;4.70;99.90;;;;;;4877284;29;20056;-82
2021/12/15 04:36:53;;;;;;;7.90;3.92;;;4.70;99.90;;;;;;4879645;29;20059;-82
2021/12/15 04:39:23;;;;;;;8.65;4.80;;;4.70;99.90;;;;;;4888809;29;20414;-82
2021/12/15 04:41:53;;;;;;;5.32;3.97;;;4.70;99.90;;;;;;4878809;29;20067;-82
2021/12/15 04:44:28;;;;;;;4.80;4.07;;;4.70;99.90;;;;;;4876966;29;20036;-82
2021/12/15 04:47:04;;;;;;;5.85;5.32;;;4.80;99.90;;;;;;4893861;29;20076;-81
2021/12/15 04:49:40;;;;;;;9.43;4.60;;;4.70;99.90;;;;;;4876319;29;20529;-82
2021/12/15 04:52:08;;;;;;;10.63;5.97;;;4.70;99.90;;;;;;4874833;29;20409;-82
2021/12/15 04:54:36;;;;;;;6.47;3.85;;;4.70;99.90;;;;;;4870153;29;20053;-82
2021/12/15 04:57:08;;;;;;;8.55;5.35;;;4.70;99.90;;;;;;4880443;29;20155;-82
2021/12/15 04:59:35;;;;;;;8.57;4.25;;;4.80;99.90;;;;;;4876957;29;20211;-82
2021/12/15 05:02:04;;;;;;;8.60;4.63;;;4.70;99.90;;;;;;4877980;29;20044;-82
2021/12/15 05:04:32;;;;;;;9.20;4.70;;;4.80;99.90;;;;;;4878253;29;20753;-82
2021/12/15 05:06:59;;;;;;;10.93;5.22;;;4.80;99.90;;;;;;4891938;29;20056;-82
2021/12/15 05:09:26;;;;;;;13.10;5.95;;;4.80;99.90;;;;;;4875321;29;20055;-82
2021/12/15 05:11:54;;;;;;;10.10;5.63;;;4.80;99.90;;;;;;4878696;29;20119;-81
2021/12/15 05:14:23;;;;;;;9.75;4.72;;;4.80;99.90;;;;;;4876572;29;20078;-81
2021/12/15 05:16:52;;;;;;;10.38;6.43;;;4.80;99.90;;;;;;4877738;29;20057;-81
2021/12/15 05:19:20;;;;;;;8.43;5.78;;;4.80;99.90;;;;;;4877180;29;20052;-82
2021/12/15 05:21:51;;;;;;;6.88;5.43;;;4.80;99.90;;;;;;4876379;29;20058;-81
2021/12/15 05:24:30;;;;;;;8.32;5.82;;;4.90;99.90;;;;;;4877240;29;20052;-81
2021/12/15 05:27:05;;;;;;;12.25;6.32;;;4.90;99.90;;;;;;4893829;29;20057;-81
2021/12/15 05:29:33;;;;;;;13.38;5.93;;;4.90;99.90;;;;;;4875557;29;20048;-82
2021/12/15 05:32:00;;;;;;;13.05;5.93;;;4.90;99.90;;;;;;4875452;29;20503;-82
2021/12/15 05:34:27;;;;;;;10.98;5.38;;;4.90;99.90;;;;;;4877343;29;20059;-81
2021/12/15 05:36:55;;;;;;;12.70;7.28;;;4.90;99.90;;;;;;4893714;29;20083;-81
2021/12/15 05:39:22;;;;;;;11.45;6.57;;;4.90;99.90;;;;;;4875621;29;20052;-81
2021/12/15 05:41:51;;;;;;;12.68;7.60;;;4.90;99.90;;;;;;4891919;29;20053;-81
2021/12/15 05:44:20;;;;;;;11.60;7.80;;;4.90;99.90;;;;;;4873869;29;20055;-81
2021/12/15 05:46:48;;;;;;;12.32;6.72;;;4.90;99.90;;;;;;4876779;29;20727;-80
2021/12/15 05:49:15;;;;;;;16.45;6.65;;;4.90;99.90;;;;;;4894018;29;20052;-81
2021/12/15 05:51:42;;;;;;;13.98;6.63;;;4.90;99.90;;;;;;4875284;29;20131;-82
2021/12/15 05:54:10;;;;;;;11.48;6.35;;;4.90;99.90;;;;;;4877203;29;20056;-81
2021/12/15 05:56:40;;;;;;;13.70;6.53;;;4.90;99.90;;;;;;4876311;29;21052;-82
2021/12/15 05:59:08;;;;;;;13.18;7.68;;;4.90;99.90;;;;;;4876565;29;20583;-82
2021/12/15 06:01:35;;;;;;;8.57;6.38;;;4.90;99.90;;;;;;4877920;29;20057;-83
2021/12/15 06:04:05;;;;;;;7.22;5.30;;;5.00;99.90;;;;;;4890446;29;21179;-82
2021/12/15 06:06:33;;;;;;;11.05;6.35;;;4.90;99.90;;;;;;4877804;29;20048;-82
2021/12/15 06:09:06;;;;;;;10.10;6.40;;;5.00;99.90;;;;;;4875968;29;21540;-82
2021/12/15 06:11:34;;;;;;;12.80;5.45;;;5.00;99.90;;;;;;4873896;29;20076;-81
2021/12/15 06:14:01;;;;;;;11.07;6.05;;;5.00;99.90;;;;;;4890674;29;20048;-82
2021/12/15 06:16:28;;;;;;;9.57;5.85;;;5.00;99.90;;;;;;4876663;29;20175;-81
2021/12/15 06:18:56;;;;;;;9.40;5.45;;;5.00;99.90;;;;;;4892622;29;21028;-82
2021/12/15 06:21:23;;;;;;;12.48;6.50;;;5.00;99.90;;;;;;4877228;29;20053;-82
2021/12/15 06:23:50;;;;;;;7.45;5.50;;;5.00;99.90;;;;;;4890799;29;20056;-81
2021/12/15 06:26:19;;;;;;;8.50;6.47;;;5.00;99.90;;;;;;4874283;29;20087;-82
2021/12/15 06:28:46;;;;;;;19.17;7.38;;;5.00;99.90;;;;;;4876943;29;20053;-82
2021/12/15 06:31:16;;;;;;;7.32;5.35;;;5.00;99.90;;;;;;4875551;29;20060;-83
2021/12/15 06:33:46;;;;;;;8.13;5.18;;;5.10;99.90;;;;;;4881534;29;20081;-82
2021/12/15 06:36:20;;;;;;;11.00;6.43;;;5.00;99.90;;;;;;4879615;29;20052;-81
2021/12/15 06:38:52;;;;;;;13.25;5.20;;;5.10;99.90;;;;;;4879034;29;20726;-84
2021/12/15 06:41:21;;;;;;;12.20;6.70;;;5.10;99.90;;;;;;4897435;29;20104;-82
2021/12/15 06:43:54;;;;;;;10.13;5.38;;;5.10;99.90;;;;;;4880105;29;20514;-84
2021/12/15 06:59:44;;;;;;;10.75;6.10;;;5.10;99.90;;;;;;4895163;29;20060;-81
2021/12/15 07:02:11;;;;;;;7.70;6.90;;;5.10;99.90;;;;;;4880714;29;20056;-81
2021/12/15 07:04:38;;;;;;;13.68;6.82;;;5.10;99.90;;;;;;4891618;29;20828;-82
2021/12/15 07:07:05;;;;;;;9.75;6.55;;;5.10;99.90;;;;;;4879385;29;20092;-81
2021/12/15 07:09:35;;;;;;;13.25;5.35;;;5.10;99.90;;;;;;4880803;29;20060;-81
2021/12/15 07:12:03;;;;;;;8.27;5.82;;;5.10;99.90;;;;;;4880065;29;20056;-82
2021/12/15 07:14:31;;;;;;;11.23;6.93;;;5.10;99.90;;;;;;4878557;29;21699;-81
2021/12/15 07:16:59;;;;;;;9.30;5.18;;;5.20;99.90;;;;;;4881272;29;20526;-81
2021/12/15 07:22:08;;;;;;;11.45;6.20;;;5.20;99.90;;;;;;4896377;29;20459;-81
2021/12/15 07:24:38;;;;;;;7.68;5.07;;;5.20;99.90;;;;;;4874874;29;20612;-81
2021/12/15 07:27:06;;;;;;;11.88;7.50;;;5.30;99.90;;;;;;4881582;29;20140;-80
2021/12/15 07:29:35;;;;;;;7.50;6.15;;;5.30;99.90;;;;;;4879520;29;20044;-81
2021/12/15 07:32:03;;;;;;;10.57;5.65;;;5.30;99.90;;;;;;4880063;29;20055;-82
2021/12/15 07:34:30;;;;;;;11.85;8.18;;;5.30;99.90;;;;;;4863599;29;20049;-82
2021/12/15 07:36:57;;;;;;;9.50;7.22;;;5.40;99.90;;;;;;4878918;29;20071;-82
2021/12/15 07:39:24;;;;;;;7.35;6.68;;;5.40;99.90;;;;;;4878480;29;20056;-81
2021/12/15 07:41:54;;;;;;;7.80;5.15;;;5.40;99.90;;;;;;4877942;29;20435;-82
2021/12/15 07:44:22;;;;;;;8.65;6.93;;;5.40;99.90;;;;;;4878633;29;20065;-82
2021/12/15 07:46:51;;;;;;;7.78;5.63;;;5.40;99.90;;;;;;4874643;29;20056;-81
2021/12/15 07:49:20;;;;;;;9.73;6.07;;;5.40;99.90;;;;;;4879247;29;20063;-81
2021/12/15 07:51:50;;;;;;;8.50;6.50;;;5.40;99.90;;;;;;4879211;29;20296;-82
2021/12/15 07:54:19;;;;;;;7.43;4.63;;;5.40;99.90;;;;;;4877017;29;20104;-81
2021/12/15 07:56:47;;;;;;;7.72;5.53;;;5.40;99.90;;;;;;4874428;29;20052;-82
2021/12/15 07:59:14;;;;;;;9.75;5.60;;;5.40;99.90;;;;;;4876944;29;20053;-81
2021/12/15 08:01:41;;;;;;;7.82;5.22;;;5.40;99.90;;;;;;4895301;29;20064;-81
2021/12/15 08:04:09;;;;;;;8.68;6.20;;;5.40;99.90;;;;;;4878760;29;20053;-82
2021/12/15 08:06:35;;;;;;;7.13;5.63;;;5.40;99.90;;;;;;4894356;29;20095;-82
2021/12/15 08:09:05;;;;;;;8.70;5.30;;;5.40;99.90;;;;;;4893936;29;20073;-82
2021/12/15 08:11:34;;;;;;;10.82;6.68;;;5.50;99.90;;;;;;4893130;29;20053;-82
2021/12/15 08:14:01;;;;;;;9.45;5.47;;;5.50;99.90;;;;;;4879917;29;20119;-82
2021/12/15 08:16:28;;;;;;;5.78;5.20;;;5.50;99.90;;;;;;4878575;29;20048;-82
2021/12/15 08:18:56;;;;;;;6.72;5.50;;;5.50;99.90;;;;;;4878835;29;20573;-82
2021/12/15 08:21:28;;;;;;;;;;;5.50;99.90;;;;;;4881944;29;20048;-82
2021/12/15 08:23:56;;;;;;;6.47;4.20;;;5.50;99.90;;;;;;4896776;29;20294;-82
2021/12/15 08:26:23;;;;;;;6.07;4.40;;;5.60;99.90;;;;;;4887503;29;20057;-82
2021/12/15 08:28:52;;;;;;;9.02;4.70;;;5.60;99.90;;;;;;4899971;29;20582;-82
2021/12/15 08:31:19;;;;;;;4.88;3.90;;;5.60;99.90;;;;;;4880771;29;21675;-82
2021/12/15 08:33:47;;;;;;;5.97;4.80;;;5.60;99.90;;;;;;4877754;29;20056;-82
2021/12/15 08:36:15;;;;;;;9.68;5.22;;;5.60;99.90;;;;;;4878691;29;20422;-82
2021/12/15 08:38:45;;;;;;;5.78;5.13;;;5.60;99.90;;;;;;4876662;29;20083;-81
2021/12/15 08:41:19;;;;;;;7.30;4.78;;;5.60;99.90;;;;;;4876239;29;20667;-82
2021/12/15 08:43:47;;;;;;;7.18;5.30;;;5.60;99.90;;;;;;4877521;29;20591;-82
2021/12/15 08:46:18;;;;;;;5.57;3.38;;;5.70;99.90;;;;;;4877113;29;20521;-82
2021/12/15 08:48:47;;;;;;;5.65;4.07;;;5.70;99.90;;;;;;4879956;29;20048;-82
2021/12/15 08:51:16;;;;;;;7.85;4.25;;;5.70;99.90;;;;;;4877518;29;20052;-81
2021/12/15 08:53:44;;;;;;;5.63;5.13;;;5.70;99.90;;;;;;4896720;29;20743;-81
2021/12/15 08:56:12;;;;;;;7.10;4.70;;;5.70;99.90;;;;;;4862784;29;20736;-81
2021/12/15 08:58:39;;;;;;;4.55;4.13;;;5.70;99.90;;;;;;4895414;29;21116;-81
2021/12/15 09:01:08;;;;;;;8.23;4.88;;;5.70;99.90;;;;;;4879352;29;20190;-81
2021/12/15 09:03:36;;;;;;;5.03;4.22;;;5.70;99.90;;;;;;4875015;29;20056;-82
2021/12/15 09:06:03;;;;;;;6.05;3.85;;;5.70;99.90;;;;;;4879082;29;20561;-83
2021/12/15 09:08:31;;;;;;;6.28;3.67;;;5.70;99.90;;;;;;4876333;29;20045;-81
2021/12/15 09:11:01;;;;;;;6.60;3.95;;;5.80;99.90;;;;;;4878555;29;20053;-81
2021/12/15 09:13:31;;;;;;;6.82;3.97;;;5.80;99.90;;;;;;4878011;29;20036;-82
2021/12/15 09:16:01;;;;;;;4.95;3.58;;;5.80;99.90;;;;;;4877661;29;20511;-82
2021/12/15 09:18:29;;;;;;;6.20;3.47;;;5.90;99.90;;;;;;4879079;29;20072;-82
2021/12/15 09:20:57;;;;;;;7.38;4.68;;;5.90;99.90;;;;;;4894590;29;20056;-82
2021/12/15 09:23:24;;;;;;;4.82;3.85;;;5.90;99.90;;;;;;4878982;29;20414;-82
2021/12/15 09:25:51;;;;;;;6.55;3.40;;;5.90;99.90;;;;;;4877359;29;20056;-81
2021/12/15 09:28:19;;;;;;;7.10;3.15;;;6.00;99.90;;;;;;4877770;29;20052;-82
2021/12/15 09:30:48;;;;;;;3.78;2.90;;;6.00;99.90;;;;;;4877540;29;20049;-82
2021/12/15 09:33:22;;;;;;;4.22;2.25;;;6.10;99.90;;;;;;4878352;29;20063;-82
2021/12/15 09:35:49;;;;;;;4.13;2.88;;;6.10;99.90;;;;;;4877153;29;20052;-82
2021/12/15 09:38:19;;;;;;;3.45;2.85;;;6.20;99.90;;;;;;4877321;29;20049;-81
2021/12/15 09:40:47;;;;;;;4.57;2.40;;;6.20;99.90;;;;;;4878833;29;20057;-83
2021/12/15 09:43:15;;;;;;;3.90;2.50;;;6.30;99.90;;;;;;4875767;29;20048;-82
2021/12/15 09:45:50;;;;;;;5.65;2.20;;;6.40;99.90;;;;;;4874897;29;20048;-81
2021/12/15 10:10:45;;;;;;;3.65;2.35;;;6.60;99.90;;;;;;4854509;29;20101;-81
2021/12/15 10:19:24;;;;;;;4.22;1.63;;;6.70;99.90;;;;;;4875839;29;20056;-82
2021/12/15 10:22:09;;;;;;;6.93;2.40;;;6.60;99.90;;;;;;4875598;29;20063;-81
2021/12/15 10:24:51;;;;;;;1.70;1.60;;;6.70;99.90;;;;;;4889978;29;20048;-82
2021/12/15 10:27:48;;;;;;;3.55;2.17;;;6.70;99.90;;;;;;4877386;29;20040;-82
2021/12/15 10:30:25;;;;;;;6.40;1.95;;;6.60;99.90;;;;;;4873680;29;20064;-81
2021/12/15 10:33:03;;;;;;;3.60;1.88;;;6.70;99.90;;;;;;4878119;29;20065;-81
2021/12/15 10:35:46;;;;;;;1.67;1.48;;;6.70;99.90;;;;;;4880278;29;20067;-84
2021/12/15 10:38:17;;;;;;;3.83;1.70;;;6.60;99.90;;;;;;4876609;29;20057;-81
2021/12/15 10:41:18;;;;;;;8.90;3.85;;;6.70;99.90;;;;;;4875919;29;20056;-81
2021/12/15 10:43:50;;;;;;;2.42;1.92;;;6.70;99.90;;;;;;4855900;29;20060;-82
2021/12/15 10:46:36;;;;;;;2.05;1.85;;;6.70;99.90;;;;;;4874294;29;20048;-81
2021/12/15 10:49:18;;;;;;;2.83;1.95;;;6.70;99.90;;;;;;4890355;29;20056;-85
2021/12/15 10:51:53;;;;;;;3.75;1.83;;;6.70;99.90;;;;;;4876753;29;20052;-84
2021/12/15 10:54:36;;;;;;;4.63;2.10;;;6.70;99.90;;;;;;4880094;29;20647;-81
2021/12/15 10:57:16;;;;;;;3.13;2.05;;;6.70;99.90;;;;;;4875266;29;20044;-81
2021/12/15 10:59:45;;;;;;;2.50;1.85;;;6.70;99.90;;;;;;4877444;29;20045;-80
2021/12/15 11:02:32;;;;;;;4.32;2.58;;;6.70;99.90;;;;;;4876163;29;20052;-80
2021/12/15 11:05:08;;;;;;;8.75;2.42;;;6.70;99.90;;;;;;4875889;29;20052;-81
2021/12/15 11:07:45;;;;;;;3.47;1.75;;;6.70;99.90;;;;;;4877827;29;21244;-81
2021/12/15 11:10:34;;;;;;;6.18;2.38;;;6.70;99.90;;;;;;4890745;29;20410;-81
2021/12/15 11:13:03;;;;;;;5.22;3.00;;;6.70;99.90;;;;;;4894583;29;20084;-81
2021/12/15 11:15:39;;;;;;;4.15;2.20;;;6.70;99.90;;;;;;4876909;29;20139;-81
2021/12/15 11:18:28;;;;;;;3.67;1.88;;;6.70;99.90;;;;;;4882690;29;20948;-81
2021/12/15 11:20:57;;;;;;;2.40;2.20;;;6.70;99.90;;;;;;4894705;29;20057;-81
2021/12/15 11:23:27;;;;;;;4.20;1.90;;;6.70;99.90;;;;;;4879536;29;20063;-83
2021/12/15 11:26:01;;;;;;;2.95;1.52;;;6.80;99.90;;;;;;4881394;29;20053;-81
2021/12/15 11:28:50;;;;;;;2.67;1.70;;;6.80;99.90;;;;;;4883335;29;20104;-81
2021/12/15 11:31:34;;;;;;;2.45;1.65;;;6.80;99.90;;;;;;4880630;29;20040;-82
2021/12/15 11:34:05;;;;;;;4.40;1.88;;;6.80;99.90;;;;;;4896615;29;20044;-81
2021/12/15 11:36:34;;;;;;;2.55;1.70;;;6.80;99.90;;;;;;4886390;29;21724;-81
2021/12/15 11:39:09;;;;;;;4.47;2.17;;;6.80;99.90;;;;;;4881800;29;20553;-81
2021/12/15 11:41:42;;;;;;;1.60;1.45;;;6.80;99.90;;;;;;4878999;29;20056;-81
2021/12/15 11:44:13;;;;;;;3.47;1.38;;;6.80;99.90;;;;;;4896137;29;20056;-81
2021/12/15 11:47:03;;;;;;;4.28;3.40;;;6.80;99.90;;;;;;4876266;29;20056;-82
2021/12/15 11:49:40;;;;;;;2.28;1.42;;;6.80;99.90;;;;;;4877937;29;20044;-81
2021/12/15 11:52:10;;;;;;;2.60;1.15;;;6.80;99.90;;;;;;4880835;29;20107;-81
2021/12/15 11:54:38;;;;;;;;;;;6.80;99.90;;;;;;4876517;29;20056;-81
2021/12/15 11:57:18;;;;;;;5.95;1.75;;;6.80;99.90;;;;;;4877494;29;20019;-81
2021/12/15 11:59:49;;;;;;;1.88;1.17;;;6.80;99.90;;;;;;4891902;29;20063;-82
2021/12/15 12:02:25;;;;;;;3.63;1.75;;;6.80;99.90;;;;;;4895736;29;21470;-82
2021/12/15 12:04:57;;;;;;;1.70;1.48;;;6.80;99.90;;;;;;4879452;29;20291;-83
2021/12/15 12:07:44;;;;;;;2.75;0.98;;;6.80;99.90;;;;;;4879960;29;20411;-83
2021/12/15 12:10:14;;;;;;;1.33;1.00;;;6.80;99.90;;;;;;4879700;29;20412;-83
2021/12/15 12:12:52;;;;;;;3.55;1.30;;;6.90;99.90;;;;;;4877791;29;20049;-82
2021/12/15 12:15:27;;;;;;;4.43;1.25;;;6.80;99.90;;;;;;4891635;29;20055;-83
2021/12/15 12:17:57;;;;;;;2.72;1.35;;;6.90;99.90;;;;;;4877046;29;20056;-82
2021/12/15 12:20:32;;;;;;;5.95;1.30;;;6.80;99.90;;;;;;4877965;29;20764;-82
2021/12/15 12:23:01;;;;;;;0.68;0.68;;;6.80;99.90;;;;;;4876550;29;20053;-81
2021/12/15 12:25:34;;;;;;;4.15;1.10;;;6.90;99.90;;;;;;4876018;29;20048;-81
2021/12/15 12:28:07;;;;;;;2.20;1.08;;;6.90;99.90;;;;;;4879228;29;20052;-81
2021/12/15 12:30:38;;;;;;;2.13;1.38;;;6.90;99.90;;;;;;4879462;29;20043;-81
2021/12/15 12:33:09;;;;;;;1.73;0.98;;;6.90;99.90;;;;;;4894481;29;20049;-81
2021/12/15 12:35:42;;;;;;;1.85;1.65;;;6.90;99.90;;;;;;4881185;29;20475;-82
2021/12/15 12:38:19;;;;;;;9.43;2.42;;;6.80;99.90;;;;;;4894202;29;20051;-81
2021/12/15 12:40:54;;;;;;;2.15;1.67;;;6.80;99.90;;;;;;4879999;29;20131;-82
2021/12/15 12:43:26;;;;;;;2.72;1.08;;;6.80;99.90;;;;;;4876915;29;20503;-82
2021/12/15 12:46:09;;;;;;;3.70;1.10;;;6.80;99.90;;;;;;4894971;29;20040;-82
2021/12/15 12:49:05;;;;;;;2.60;1.02;;;6.80;99.90;;;;;;4881358;29;20863;-82
2021/12/15 13:00:30;;;;;;;6.47;1.53;;;6.70;99.90;;;;;;4876706;29;20049;-82
2021/12/15 13:03:11;;;;;;;1.70;1.00;;;6.70;99.90;;;;;;4880096;29;20205;-82
2021/12/15 13:05:46;;;;;;;2.45;1.15;;;6.70;99.90;;;;;;4894070;29;20511;-82
2021/12/15 13:08:37;;;;;;;2.63;1.13;;;6.70;99.90;;;;;;4876974;29;20641;-82
2021/12/15 13:11:06;;;;;;;3.92;1.67;;;6.60;99.90;;;;;;4879778;29;20418;-82
2021/12/15 13:13:35;;;;;;;5.40;1.63;;;6.60;99.90;;;;;;4878962;29;20060;-82
2021/12/15 13:16:02;;;;;;;6.05;1.30;;;6.60;99.90;;;;;;4894310;29;20060;-82
2021/12/15 13:18:44;;;;;;;5.35;1.35;;;6.60;99.90;;;;;;4896209;29;20052;-82
2021/12/15 13:21:13;;;;;;;4.28;1.70;;;6.50;99.90;;;;;;4879884;29;20053;-81
2021/12/15 13:23:51;;;;;;;4.40;1.90;;;6.50;99.90;;;;;;4877711;29;20056;-82
2021/12/15 13:29:47;;;;;;;1.85;1.75;;;6.50;99.90;;;;;;4875979;29;20387;-81
2021/12/15 13:32:14;;;;;;;4.72;1.52;;;6.50;99.90;;;;;;4878579;29;20044;-79
2021/12/15 13:34:48;;;;;;;4.68;2.35;;;6.40;99.90;;;;;;4879608;29;20802;-80
2021/12/15 13:37:51;;;;;;;7.65;2.05;;;6.40;99.90;;;;;;4875985;29;20059;-80
2021/12/15 13:40:47;;;;;;;2.17;1.50;;;6.40;99.90;;;;;;4875506;29;20060;-80
2021/12/15 13:43:39;;;;;;;4.28;1.77;;;6.40;99.90;;;;;;4879579;29;20055;-79
2021/12/15 13:46:10;;;;;;;3.35;1.50;;;6.40;99.90;;;;;;4876658;29;20611;-81
2021/12/15 13:49:03;;;;;;;4.47;1.52;;;6.40;99.90;;;;;;4894873;29;20109;-81
2021/12/15 13:51:58;;;;;;;3.58;2.08;;;6.40;99.90;;;;;;4878220;29;20819;-81
2021/12/15 13:54:35;;;;;;;4.88;2.17;;;6.40;99.90;;;;;;4878040;29;20056;-82
2021/12/15 13:57:11;;;;;;;3.17;1.45;;;6.40;99.90;;;;;;4878420;29;20057;-82
2021/12/15 13:59:47;;;;;;;12.45;2.58;;;6.40;99.90;;;;;;4892246;29;20052;-81
2021/12/15 14:02:17;;;;;;;4.13;1.85;;;6.40;99.90;;;;;;4894546;29;20455;-81
2021/12/15 14:05:07;;;;;;;5.97;1.83;;;6.40;99.90;;;;;;4883122;29;20412;-82
2021/12/15 14:07:45;;;;;;;2.75;1.67;;;6.40;99.90;;;;;;4879708;29;20051;-82
2021/12/15 14:10:18;;;;;;;2.88;1.40;;;6.40;99.90;;;;;;4875459;29;20053;-82
2021/12/15 14:12:45;;;;;;;5.47;1.73;;;6.30;99.90;;;;;;4882864;29;20071;-82
2021/12/15 14:15:32;;;;;;;5.00;1.83;;;6.40;99.90;;;;;;4863703;29;20140;-82
2021/12/15 14:18:11;;;;;;;2.72;1.20;;;6.40;99.90;;;;;;4882113;29;20104;-83
2021/12/15 14:20:55;;;;;;;2.33;1.75;;;6.40;99.90;;;;;;4877914;29;20060;-82
2021/12/15 14:23:30;;;;;;;2.30;1.80;;;6.40;99.90;;;;;;4877854;29;20835;-82
2021/12/15 14:26:00;;;;;;;6.05;1.73;;;6.40;99.90;;;;;;4877152;29;20585;-82
2021/12/15 14:28:40;;;;;;;3.55;1.80;;;6.40;99.90;;;;;;4883622;29;20431;-82
2021/12/15 14:31:23;;;;;;;3.35;2.45;;;6.40;99.90;;;;;;4877557;29;20756;-82
2021/12/15 14:33:59;;;;;;;12.65;3.08;;;6.40;99.90;;;;;;4875071;29;20060;-82
2021/12/15 14:36:29;;;;;;;4.60;1.48;;;6.40;99.90;;;;;;4875019;29;20051;-82
2021/12/15 14:39:00;;;;;;;3.85;2.72;;;6.40;99.90;;;;;;4867444;29;20067;-82
2021/12/15 14:41:50;;;;;;;3.17;1.93;;;6.40;99.90;;;;;;4878536;29;20056;-83
2021/12/15 14:44:21;;;;;;;1.40;1.30;;;6.40;99.90;;;;;;4876931;29;20063;-81
2021/12/15 14:46:59;;;;;;;5.93;1.98;;;6.40;99.90;;;;;;4892433;29;20787;-81
2021/12/15 14:49:48;;;;;;;2.13;1.88;;;6.40;99.90;;;;;;4874212;29;20067;-81
2021/12/15 14:52:16;;;;;;;2.42;1.65;;;6.40;99.90;;;;;;4893945;29;20051;-81
2021/12/15 14:54:45;;;;;;;5.20;1.58;;;6.40;99.90;;;;;;4874976;29;20736;-81
2021/12/15 14:57:18;;;;;;;1.77;1.20;;;6.40;99.90;;;;;;4878599;29;20998;-84